Private Wetterstation Ehingen
Wetterdaten: aktuell Montag, 24.04.2017 17:05
Datum Zeit Temperatur Luftfeuchte Luftdruck Regen Wind Richtung Richtung Sonnenschein Taupunkt Windchill Windben
24.04.2017 17:05 17,9 C 47 % 1010,1 hPa 0,0 l/m 6,7 km/h (2 Bft) SW 222 5 min 6,4 C 17,8 C 11,4 km/h (2 Bft)
24.04.2017 17:00 17,9 C 47 % 1010,1 hPa 0,0 l/m 10,5 km/h (2 Bft) SW 223 5 min 6,4 C 16,1 C 15,2 km/h (3 Bft)
24.04.2017 16:55 17,8 C 47 % 1010,1 hPa 0,0 l/m 0,0 km/h (0 Bft) W 274 5 min 6,3 C 17,8 C 0,0 km/h (0 Bft)
24.04.2017 16:50 17,8 C 47 % 1010,1 hPa 0,0 l/m 4,8 km/h (1 Bft) O-NO 62 5 min 6,3 C 17,8 C 7,6 km/h (2 Bft)
24.04.2017 16:45 17,8 C 47 % 1010,1 hPa 0,0 l/m 7,6 km/h (2 Bft) S 191 5 min 6,3 C 17,2 C 10,5 km/h (2 Bft)
24.04.2017 16:40 17,8 C 47 % 1010,1 hPa 0,0 l/m 6,7 km/h (2 Bft) S-SW 206 5 min 6,3 C 17,7 C 13,3 km/h (3 Bft)
24.04.2017 16:35 17,7 C 47 % 1010,1 hPa 0,0 l/m 4,8 km/h (1 Bft) O 87 5 min 6,2 C 17,7 C 7,6 km/h (2 Bft)
24.04.2017 16:30 17,7 C 47 % 1010,1 hPa 0,0 l/m 6,7 km/h (2 Bft) S-SO 168 5 min 6,2 C 17,6 C 11,4 km/h (2 Bft)
24.04.2017 16:25 17,7 C 48 % 1010,1 hPa 0,0 l/m 6,7 km/h (2 Bft) S 170 5 min 6,6 C 17,6 C 12,4 km/h (2 Bft)
24.04.2017 16:20 17,7 C 48 % 1010,1 hPa 0,0 l/m 8,6 km/h (2 Bft) W-NW 283 5 min 6,6 C 16,7 C 13,3 km/h (3 Bft)
24.04.2017 16:15 17,6 C 48 % 1010,1 hPa 0,0 l/m 9,5 km/h (2 Bft) SW 234 5 min 6,5 C 16,2 C 12,4 km/h (2 Bft)
24.04.2017 16:10 17,5 C 48 % 1011,2 hPa 0,0 l/m 11,4 km/h (2 Bft) W-SW 256 5 min 6,4 C 15,4 C 17,6 km/h (3 Bft)
24.04.2017 16:05 17,5 C 48 % 1011,2 hPa 0,0 l/m 8,6 km/h (2 Bft) S 186 5 min 6,4 C 16,5 C 10,5 km/h (2 Bft)
24.04.2017 16:00 17,4 C 48 % 1011,2 hPa 0,0 l/m 12,4 km/h (2 Bft) W 262 5 min 6,3 C 14,9 C 13,3 km/h (3 Bft)
24.04.2017 15:55 17,3 C 48 % 1011,2 hPa 0,0 l/m 13,3 km/h (3 Bft) W 264 5 min 6,2 C 14,5 C 18,5 km/h (3 Bft)
24.04.2017 15:50 17,2 C 48 % 1011,3 hPa 0,0 l/m 7,6 km/h (2 Bft) W-SW 252 5 min 6,1 C 16,6 C 10,5 km/h (2 Bft)
24.04.2017 15:45 17,2 C 48 % 1011,3 hPa 0,0 l/m 9,5 km/h (2 Bft) NW 308 5 min 6,1 C 15,8 C 15,2 km/h (3 Bft)
24.04.2017 15:40 17,1 C 49 % 1011,3 hPa 0,0 l/m 13,3 km/h (3 Bft) W 272 5 min 6,3 C 14,3 C 17,6 km/h (3 Bft)
24.04.2017 15:35 17,0 C 49 % 1011,3 hPa 0,0 l/m 13,3 km/h (3 Bft) W-SW 254 5 min 6,2 C 14,1 C 22,3 km/h (4 Bft)
24.04.2017 15:30 16,9 C 50 % 1011,3 hPa 0,0 l/m 4,8 km/h (1 Bft) W 278 5 min 6,4 C 16,9 C 7,6 km/h (2 Bft)
24.04.2017 15:25 16,8 C 50 % 1011,3 hPa 0,0 l/m 13,3 km/h (3 Bft) W 260 5 min 6,3 C 13,9 C 18,5 km/h (3 Bft)
_ Min-Zeit 06:50 17:05 17:05 - 16:55 - - - 06:10 06:50 16:55
Minimum _ -2,4 C 47 % 1010,1 hPa - 0,0 km/h (0 Bft) - - - -5,6 C -2,4 C 0,0 km/h (0 Bft)
_ Max-Zeit 17:05 07:30 05:55 17:05 14:30 - - 17:05 16:25 16:55 15:35
Maximum _ 17,9 C 85 % 1022,0 hPa 0,0 l/m 14,3 km/h
SW (3 Bft)
- - 5 min 6,6 C 17,8 C 22,3 km/h
W-SW (4 Bft)
Durchschnitt _ 7,8 C 64 % 1017,0 hPa #0,0 l/m 3,8 km/h (1 Bft) SW - #10:45 h 1,0 C 7,5 C 6,0 km/h (2 Bft)